sensor_id;sensor_type;location;lat;lon;timestamp;temperature;humidity
78902;DHT22;70441;44.758;37.686;2024-03-06T00:00:45;10.10;66.79
78902;DHT22;70441;44.758;37.686;2024-03-06T00:01:47;10.08;66.80
78902;DHT22;70441;44.758;37.686;2024-03-06T00:02:48;10.08;66.83
78902;DHT22;70441;44.758;37.686;2024-03-06T00:03:50;10.10;66.71
78902;DHT22;70441;44.758;37.686;2024-03-06T00:04:51;10.08;66.83
78902;DHT22;70441;44.758;37.686;2024-03-06T00:05:53;10.05;66.88
78902;DHT22;70441;44.758;37.686;2024-03-06T00:06:54;10.08;66.91
78902;DHT22;70441;44.758;37.686;2024-03-06T00:07:56;10.11;66.87
78902;DHT22;70441;44.758;37.686;2024-03-06T00:08:58;10.11;66.70
78902;DHT22;70441;44.758;37.686;2024-03-06T00:09:59;10.10;66.68
78902;DHT22;70441;44.758;37.686;2024-03-06T00:11:00;10.08;66.70
78902;DHT22;70441;44.758;37.686;2024-03-06T00:12:02;10.10;66.75
78902;DHT22;70441;44.758;37.686;2024-03-06T00:13:03;10.11;66.62
78902;DHT22;70441;44.758;37.686;2024-03-06T00:14:06;10.12;66.63
78902;DHT22;70441;44.758;37.686;2024-03-06T00:15:07;10.11;66.44
78902;DHT22;70441;44.758;37.686;2024-03-06T00:16:09;10.14;66.54
78902;DHT22;70441;44.758;37.686;2024-03-06T00:17:10;10.14;66.45
78902;DHT22;70441;44.758;37.686;2024-03-06T00:18:12;10.15;66.52
78902;DHT22;70441;44.758;37.686;2024-03-06T00:19:31;10.12;66.48
78902;DHT22;70441;44.758;37.686;2024-03-06T00:20:33;10.15;66.37
78902;DHT22;70441;44.758;37.686;2024-03-06T00:21:35;10.15;66.35
78902;DHT22;70441;44.758;37.686;2024-03-06T00:22:37;10.14;66.45
78902;DHT22;70441;44.758;37.686;2024-03-06T00:23:38;10.15;66.44
78902;DHT22;70441;44.758;37.686;2024-03-06T00:24:40;10.15;66.38
78902;DHT22;70441;44.758;37.686;2024-03-06T00:25:41;10.15;66.44
78902;DHT22;70441;44.758;37.686;2024-03-06T00:26:46;10.15;66.42
78902;DHT22;70441;44.758;37.686;2024-03-06T00:27:48;10.12;66.27
78902;DHT22;70441;44.758;37.686;2024-03-06T00:28:49;10.11;66.41
78902;DHT22;70441;44.758;37.686;2024-03-06T00:29:51;10.11;66.42
78902;DHT22;70441;44.758;37.686;2024-03-06T00:30:52;10.12;66.44
78902;DHT22;70441;44.758;37.686;2024-03-06T00:31:54;10.10;66.36
78902;DHT22;70441;44.758;37.686;2024-03-06T00:32:55;10.08;66.45
78902;DHT22;70441;44.758;37.686;2024-03-06T00:33:56;10.12;66.50
78902;DHT22;70441;44.758;37.686;2024-03-06T00:34:58;10.11;66.44
78902;DHT22;70441;44.758;37.686;2024-03-06T00:35:59;10.11;66.41
78902;DHT22;70441;44.758;37.686;2024-03-06T00:37:01;10.08;66.57
78902;DHT22;70441;44.758;37.686;2024-03-06T00:38:03;10.08;66.57
78902;DHT22;70441;44.758;37.686;2024-03-06T00:39:04;10.14;66.49
78902;DHT22;70441;44.758;37.686;2024-03-06T00:40:06;10.14;66.36
78902;DHT22;70441;44.758;37.686;2024-03-06T00:41:08;10.11;66.32
78902;DHT22;70441;44.758;37.686;2024-03-06T00:42:12;10.11;66.44
78902;DHT22;70441;44.758;37.686;2024-03-06T00:43:14;10.08;66.53
78902;DHT22;70441;44.758;37.686;2024-03-06T00:44:16;10.10;66.45
78902;DHT22;70441;44.758;37.686;2024-03-06T00:45:18;10.10;66.56
78902;DHT22;70441;44.758;37.686;2024-03-06T00:46:19;10.05;66.57
78902;DHT22;70441;44.758;37.686;2024-03-06T00:47:21;10.05;66.61
78902;DHT22;70441;44.758;37.686;2024-03-06T00:48:22;10.05;66.58
78902;DHT22;70441;44.758;37.686;2024-03-06T00:49:24;10.05;66.67
78902;DHT22;70441;44.758;37.686;2024-03-06T00:50:25;10.07;66.61
78902;DHT22;70441;44.758;37.686;2024-03-06T00:51:27;10.07;66.66
78902;DHT22;70441;44.758;37.686;2024-03-06T00:52:28;10.07;66.61
78902;DHT22;70441;44.758;37.686;2024-03-06T00:53:30;10.08;66.56
78902;DHT22;70441;44.758;37.686;2024-03-06T00:54:31;10.01;66.67
78902;DHT22;70441;44.758;37.686;2024-03-06T00:55:32;10.01;66.68
78902;DHT22;70441;44.758;37.686;2024-03-06T00:56:40;10.00;66.86
78902;DHT22;70441;44.758;37.686;2024-03-06T00:57:41;10.00;66.85
78902;DHT22;70441;44.758;37.686;2024-03-06T00:58:43;9.98;66.93
78902;DHT22;70441;44.758;37.686;2024-03-06T00:59:44;9.98;66.87
78902;DHT22;70441;44.758;37.686;2024-03-06T01:00:46;9.97;66.94
78902;DHT22;70441;44.758;37.686;2024-03-06T01:01:47;9.94;66.80
78902;DHT22;70441;44.758;37.686;2024-03-06T01:02:48;9.93;67.00
78902;DHT22;70441;44.758;37.686;2024-03-06T01:03:50;9.94;66.99
78902;DHT22;70441;44.758;37.686;2024-03-06T01:04:51;9.94;67.06
78902;DHT22;70441;44.758;37.686;2024-03-06T01:05:53;9.93;67.03
78902;DHT22;70441;44.758;37.686;2024-03-06T01:06:54;9.91;67.01
78902;DHT22;70441;44.758;37.686;2024-03-06T01:07:56;9.91;67.01
78902;DHT22;70441;44.758;37.686;2024-03-06T01:08:58;9.90;67.09
78902;DHT22;70441;44.758;37.686;2024-03-06T01:09:59;9.89;67.23
78902;DHT22;70441;44.758;37.686;2024-03-06T01:11:02;9.90;67.28
78902;DHT22;70441;44.758;37.686;2024-03-06T01:12:05;9.94;67.15
78902;DHT22;70441;44.758;37.686;2024-03-06T01:13:07;9.91;67.15
78902;DHT22;70441;44.758;37.686;2024-03-06T01:14:11;9.89;67.28
78902;DHT22;70441;44.758;37.686;2024-03-06T01:15:13;9.89;67.44
78902;DHT22;70441;44.758;37.686;2024-03-06T01:16:14;9.89;67.35
78902;DHT22;70441;44.758;37.686;2024-03-06T01:17:16;9.86;67.44
78902;DHT22;70441;44.758;37.686;2024-03-06T01:18:17;9.87;67.36
78902;DHT22;70441;44.758;37.686;2024-03-06T01:19:19;9.89;67.36
78902;DHT22;70441;44.758;37.686;2024-03-06T01:20:20;9.87;67.39
78902;DHT22;70441;44.758;37.686;2024-03-06T01:21:22;9.87;67.40
78902;DHT22;70441;44.758;37.686;2024-03-06T01:22:23;9.87;67.38
78902;DHT22;70441;44.758;37.686;2024-03-06T01:23:25;9.89;67.43
78902;DHT22;70441;44.758;37.686;2024-03-06T01:24:26;9.86;67.39
78902;DHT22;70441;44.758;37.686;2024-03-06T01:25:28;9.83;67.53
78902;DHT22;70441;44.758;37.686;2024-03-06T01:26:29;9.83;67.49
78902;DHT22;70441;44.758;37.686;2024-03-06T01:27:31;9.83;67.58
78902;DHT22;70441;44.758;37.686;2024-03-06T01:28:32;9.82;67.53
78902;DHT22;70441;44.758;37.686;2024-03-06T01:29:34;9.83;67.45
78902;DHT22;70441;44.758;37.686;2024-03-06T01:30:35;9.82;67.69
78902;DHT22;70441;44.758;37.686;2024-03-06T01:31:37;9.77;67.70
78902;DHT22;70441;44.758;37.686;2024-03-06T01:32:38;9.76;67.77
78902;DHT22;70441;44.758;37.686;2024-03-06T01:33:40;9.77;67.90
78902;DHT22;70441;44.758;37.686;2024-03-06T01:34:41;9.76;67.82
78902;DHT22;70441;44.758;37.686;2024-03-06T01:35:42;9.73;67.84
78902;DHT22;70441;44.758;37.686;2024-03-06T01:36:44;9.75;67.89
78902;DHT22;70441;44.758;37.686;2024-03-06T01:37:45;9.73;67.90
78902;DHT22;70441;44.758;37.686;2024-03-06T01:38:47;9.73;67.95
78902;DHT22;70441;44.758;37.686;2024-03-06T01:39:48;9.70;68.03
78902;DHT22;70441;44.758;37.686;2024-03-06T01:40:49;9.69;67.97
78902;DHT22;70441;44.758;37.686;2024-03-06T01:41:51;9.69;68.08
78902;DHT22;70441;44.758;37.686;2024-03-06T01:42:53;9.72;68.05
78902;DHT22;70441;44.758;37.686;2024-03-06T01:43:54;9.70;68.19
78902;DHT22;70441;44.758;37.686;2024-03-06T01:44:55;9.72;68.08
78902;DHT22;70441;44.758;37.686;2024-03-06T01:45:57;9.73;68.12
78902;DHT22;70441;44.758;37.686;2024-03-06T01:46:58;9.76;68.11
78902;DHT22;70441;44.758;37.686;2024-03-06T01:48:00;9.79;67.79
78902;DHT22;70441;44.758;37.686;2024-03-06T01:49:01;9.77;67.96
78902;DHT22;70441;44.758;37.686;2024-03-06T01:50:04;9.77;67.88
78902;DHT22;70441;44.758;37.686;2024-03-06T01:51:10;9.76;68.01
78902;DHT22;70441;44.758;37.686;2024-03-06T01:52:13;9.79;67.93
78902;DHT22;70441;44.758;37.686;2024-03-06T01:53:17;9.82;67.87
78902;DHT22;70441;44.758;37.686;2024-03-06T01:54:19;9.79;67.91
78902;DHT22;70441;44.758;37.686;2024-03-06T01:55:21;9.79;67.84
78902;DHT22;70441;44.758;37.686;2024-03-06T01:56:23;9.75;67.86
78902;DHT22;70441;44.758;37.686;2024-03-06T01:57:25;9.76;68.04
78902;DHT22;70441;44.758;37.686;2024-03-06T01:58:27;9.76;67.86
78902;DHT22;70441;44.758;37.686;2024-03-06T01:59:29;9.72;67.92
78902;DHT22;70441;44.758;37.686;2024-03-06T02:00:32;9.72;68.14
78902;DHT22;70441;44.758;37.686;2024-03-06T02:01:35;9.77;68.16
78902;DHT22;70441;44.758;37.686;2024-03-06T02:02:36;9.77;67.80
78902;DHT22;70441;44.758;37.686;2024-03-06T02:03:38;9.79;67.82
78902;DHT22;70441;44.758;37.686;2024-03-06T02:04:40;9.80;67.98
78902;DHT22;70441;44.758;37.686;2024-03-06T02:05:41;9.77;67.76
78902;DHT22;70441;44.758;37.686;2024-03-06T02:06:44;9.77;67.77
78902;DHT22;70441;44.758;37.686;2024-03-06T02:07:47;9.77;67.79
78902;DHT22;70441;44.758;37.686;2024-03-06T02:08:49;9.77;67.77
78902;DHT22;70441;44.758;37.686;2024-03-06T02:09:50;9.76;67.83
78902;DHT22;70441;44.758;37.686;2024-03-06T02:10:52;9.75;67.90
78902;DHT22;70441;44.758;37.686;2024-03-06T02:11:53;9.77;67.77
78902;DHT22;70441;44.758;37.686;2024-03-06T02:12:55;9.79;67.77
78902;DHT22;70441;44.758;37.686;2024-03-06T02:13:57;9.79;67.52
78902;DHT22;70441;44.758;37.686;2024-03-06T02:14:59;9.77;67.62
78902;DHT22;70441;44.758;37.686;2024-03-06T02:16:00;9.80;67.64
78902;DHT22;70441;44.758;37.686;2024-03-06T02:17:02;9.80;67.53
78902;DHT22;70441;44.758;37.686;2024-03-06T02:18:06;9.83;67.38
78902;DHT22;70441;44.758;37.686;2024-03-06T02:19:09;9.80;67.46
78902;DHT22;70441;44.758;37.686;2024-03-06T02:20:11;9.80;67.31
78902;DHT22;70441;44.758;37.686;2024-03-06T02:21:13;9.77;67.32
78902;DHT22;70441;44.758;37.686;2024-03-06T02:22:18;9.73;67.55
78902;DHT22;70441;44.758;37.686;2024-03-06T02:23:19;9.75;67.40
78902;DHT22;70441;44.758;37.686;2024-03-06T02:24:23;9.72;67.48
78902;DHT22;70441;44.758;37.686;2024-03-06T02:25:24;9.70;67.37
78902;DHT22;70441;44.758;37.686;2024-03-06T02:26:26;9.70;67.62
78902;DHT22;70441;44.758;37.686;2024-03-06T02:27:27;9.72;67.52
78902;DHT22;70441;44.758;37.686;2024-03-06T02:28:29;9.75;67.38
78902;DHT22;70441;44.758;37.686;2024-03-06T02:29:32;9.75;67.27
78902;DHT22;70441;44.758;37.686;2024-03-06T02:30:36;9.73;67.31
78902;DHT22;70441;44.758;37.686;2024-03-06T02:31:38;9.77;67.21
78902;DHT22;70441;44.758;37.686;2024-03-06T02:32:40;9.76;67.07
78902;DHT22;70441;44.758;37.686;2024-03-06T02:33:42;9.80;66.97
78902;DHT22;70441;44.758;37.686;2024-03-06T02:34:45;9.76;66.99
78902;DHT22;70441;44.758;37.686;2024-03-06T02:35:46;9.79;66.89
78902;DHT22;70441;44.758;37.686;2024-03-06T02:36:48;9.79;66.81
78902;DHT22;70441;44.758;37.686;2024-03-06T02:37:49;9.70;67.00
78902;DHT22;70441;44.758;37.686;2024-03-06T02:38:50;9.72;66.95
78902;DHT22;70441;44.758;37.686;2024-03-06T02:39:52;9.68;67.07
78902;DHT22;70441;44.758;37.686;2024-03-06T02:40:53;9.66;67.06
78902;DHT22;70441;44.758;37.686;2024-03-06T02:41:55;9.66;67.14
78902;DHT22;70441;44.758;37.686;2024-03-06T02:42:57;9.66;67.08
78902;DHT22;70441;44.758;37.686;2024-03-06T02:43:58;9.66;67.04
78902;DHT22;70441;44.758;37.686;2024-03-06T02:45:00;9.70;67.00
78902;DHT22;70441;44.758;37.686;2024-03-06T02:46:01;9.69;66.90
78902;DHT22;70441;44.758;37.686;2024-03-06T02:47:03;9.68;67.04
78902;DHT22;70441;44.758;37.686;2024-03-06T02:48:05;9.69;67.01
78902;DHT22;70441;44.758;37.686;2024-03-06T02:49:06;9.69;66.88
78902;DHT22;70441;44.758;37.686;2024-03-06T02:50:08;9.66;67.05
78902;DHT22;70441;44.758;37.686;2024-03-06T02:51:09;9.66;67.06
78902;DHT22;70441;44.758;37.686;2024-03-06T02:52:10;9.66;67.03
78902;DHT22;70441;44.758;37.686;2024-03-06T02:53:12;9.65;67.07
78902;DHT22;70441;44.758;37.686;2024-03-06T02:54:13;9.65;67.04
78902;DHT22;70441;44.758;37.686;2024-03-06T02:55:15;9.66;67.09
78902;DHT22;70441;44.758;37.686;2024-03-06T02:56:17;9.63;67.15
78902;DHT22;70441;44.758;37.686;2024-03-06T02:57:19;9.63;67.17
78902;DHT22;70441;44.758;37.686;2024-03-06T02:58:20;9.63;67.22
78902;DHT22;70441;44.758;37.686;2024-03-06T02:59:21;9.59;67.20
78902;DHT22;70441;44.758;37.686;2024-03-06T03:00:23;9.62;67.18
78902;DHT22;70441;44.758;37.686;2024-03-06T03:01:25;9.61;67.19
78902;DHT22;70441;44.758;37.686;2024-03-06T03:02:26;9.65;67.11
78902;DHT22;70441;44.758;37.686;2024-03-06T03:03:28;9.63;67.08
78902;DHT22;70441;44.758;37.686;2024-03-06T03:04:29;9.65;67.12
78902;DHT22;70441;44.758;37.686;2024-03-06T03:05:30;9.63;67.06
78902;DHT22;70441;44.758;37.686;2024-03-06T03:06:32;9.65;67.06
78902;DHT22;70441;44.758;37.686;2024-03-06T03:07:34;9.66;66.94
78902;DHT22;70441;44.758;37.686;2024-03-06T03:08:37;9.62;67.03
78902;DHT22;70441;44.758;37.686;2024-03-06T03:09:39;9.61;67.03
78902;DHT22;70441;44.758;37.686;2024-03-06T03:10:40;9.62;67.02
78902;DHT22;70441;44.758;37.686;2024-03-06T03:11:42;9.62;67.05
78902;DHT22;70441;44.758;37.686;2024-03-06T03:12:45;9.59;67.04
78902;DHT22;70441;44.758;37.686;2024-03-06T03:13:46;9.62;66.98
78902;DHT22;70441;44.758;37.686;2024-03-06T03:14:48;9.61;66.96
78902;DHT22;70441;44.758;37.686;2024-03-06T03:15:49;9.61;66.92
78902;DHT22;70441;44.758;37.686;2024-03-06T03:16:52;9.61;67.02
78902;DHT22;70441;44.758;37.686;2024-03-06T03:17:54;9.63;66.97
78902;DHT22;70441;44.758;37.686;2024-03-06T03:18:56;9.59;66.84
78902;DHT22;70441;44.758;37.686;2024-03-06T03:19:57;9.61;66.99
78902;DHT22;70441;44.758;37.686;2024-03-06T03:20:59;9.56;67.02
78902;DHT22;70441;44.758;37.686;2024-03-06T03:22:00;9.55;67.05
78902;DHT22;70441;44.758;37.686;2024-03-06T03:23:05;9.52;67.21
78902;DHT22;70441;44.758;37.686;2024-03-06T03:24:12;9.52;67.20
78902;DHT22;70441;44.758;37.686;2024-03-06T03:25:14;9.53;67.21
78902;DHT22;70441;44.758;37.686;2024-03-06T03:26:16;9.52;67.16
78902;DHT22;70441;44.758;37.686;2024-03-06T03:27:17;9.49;67.27
78902;DHT22;70441;44.758;37.686;2024-03-06T03:28:19;9.49;67.35
78902;DHT22;70441;44.758;37.686;2024-03-06T03:29:20;9.48;67.43
78902;DHT22;70441;44.758;37.686;2024-03-06T03:30:22;9.46;67.45
78902;DHT22;70441;44.758;37.686;2024-03-06T03:31:23;9.44;67.47
78902;DHT22;70441;44.758;37.686;2024-03-06T03:32:25;9.42;67.55
78902;DHT22;70441;44.758;37.686;2024-03-06T03:33:26;9.42;67.64
78902;DHT22;70441;44.758;37.686;2024-03-06T03:34:27;9.42;67.64
78902;DHT22;70441;44.758;37.686;2024-03-06T03:35:29;9.37;67.64
78902;DHT22;70441;44.758;37.686;2024-03-06T03:36:30;9.34;67.82
78902;DHT22;70441;44.758;37.686;2024-03-06T03:37:32;9.32;67.98
78902;DHT22;70441;44.758;37.686;2024-03-06T03:38:35;9.31;68.03
78902;DHT22;70441;44.758;37.686;2024-03-06T03:39:39;9.27;68.17
78902;DHT22;70441;44.758;37.686;2024-03-06T03:40:40;9.27;68.32
78902;DHT22;70441;44.758;37.686;2024-03-06T03:41:46;9.23;68.33
78902;DHT22;70441;44.758;37.686;2024-03-06T03:42:47;9.21;68.51
78902;DHT22;70441;44.758;37.686;2024-03-06T03:43:49;9.21;68.61
78902;DHT22;70441;44.758;37.686;2024-03-06T03:44:50;9.20;68.75
78902;DHT22;70441;44.758;37.686;2024-03-06T03:45:52;9.17;68.90
78902;DHT22;70441;44.758;37.686;2024-03-06T03:46:53;9.19;69.01
78902;DHT22;70441;44.758;37.686;2024-03-06T03:47:55;9.13;69.15
78902;DHT22;70441;44.758;37.686;2024-03-06T03:48:56;9.13;69.26
78902;DHT22;70441;44.758;37.686;2024-03-06T03:49:58;9.11;69.27
78902;DHT22;70441;44.758;37.686;2024-03-06T03:51:00;9.11;69.40
78902;DHT22;70441;44.758;37.686;2024-03-06T03:52:01;9.07;69.36
78902;DHT22;70441;44.758;37.686;2024-03-06T03:53:04;9.10;69.50
78902;DHT22;70441;44.758;37.686;2024-03-06T03:54:06;9.07;69.60
78902;DHT22;70441;44.758;37.686;2024-03-06T03:55:12;9.04;69.76
78902;DHT22;70441;44.758;37.686;2024-03-06T03:56:14;9.02;69.92
78902;DHT22;70441;44.758;37.686;2024-03-06T03:57:15;9.00;69.97
78902;DHT22;70441;44.758;37.686;2024-03-06T03:58:18;8.99;70.16
78902;DHT22;70441;44.758;37.686;2024-03-06T03:59:19;8.99;70.19
78902;DHT22;70441;44.758;37.686;2024-03-06T04:00:21;9.00;70.28
78902;DHT22;70441;44.758;37.686;2024-03-06T04:01:24;8.97;70.25
78902;DHT22;70441;44.758;37.686;2024-03-06T04:02:26;8.99;70.35
78902;DHT22;70441;44.758;37.686;2024-03-06T04:03:28;8.97;70.34
78902;DHT22;70441;44.758;37.686;2024-03-06T04:04:29;9.00;70.44
78902;DHT22;70441;44.758;37.686;2024-03-06T04:05:31;9.00;70.22
78902;DHT22;70441;44.758;37.686;2024-03-06T04:06:32;9.04;70.27
78902;DHT22;70441;44.758;37.686;2024-03-06T04:07:34;9.04;70.20
78902;DHT22;70441;44.758;37.686;2024-03-06T04:08:35;9.03;70.24
78902;DHT22;70441;44.758;37.686;2024-03-06T04:09:36;8.99;70.46
78902;DHT22;70441;44.758;37.686;2024-03-06T04:10:38;8.97;70.54
78902;DHT22;70441;44.758;37.686;2024-03-06T04:11:40;9.02;70.64
78902;DHT22;70441;44.758;37.686;2024-03-06T04:12:42;8.96;70.71
78902;DHT22;70441;44.758;37.686;2024-03-06T04:13:43;8.97;70.69
78902;DHT22;70441;44.758;37.686;2024-03-06T04:14:44;8.94;70.75
78902;DHT22;70441;44.758;37.686;2024-03-06T04:15:46;8.96;70.75
78902;DHT22;70441;44.758;37.686;2024-03-06T04:16:48;8.96;70.87
78902;DHT22;70441;44.758;37.686;2024-03-06T04:17:50;8.93;70.87
78902;DHT22;70441;44.758;37.686;2024-03-06T04:18:51;8.94;71.05
78902;DHT22;70441;44.758;37.686;2024-03-06T04:19:53;8.92;70.98
78902;DHT22;70441;44.758;37.686;2024-03-06T04:20:54;8.93;71.16
78902;DHT22;70441;44.758;37.686;2024-03-06T04:21:56;8.93;71.24
78902;DHT22;70441;44.758;37.686;2024-03-06T04:22:57;8.96;71.14
78902;DHT22;70441;44.758;37.686;2024-03-06T04:23:58;8.93;71.11
78902;DHT22;70441;44.758;37.686;2024-03-06T04:25:00;8.92;71.18
78902;DHT22;70441;44.758;37.686;2024-03-06T04:26:01;8.94;71.13
78902;DHT22;70441;44.758;37.686;2024-03-06T04:27:03;8.96;71.11
78902;DHT22;70441;44.758;37.686;2024-03-06T04:28:05;8.97;71.11
78902;DHT22;70441;44.758;37.686;2024-03-06T04:29:08;9.00;71.04
78902;DHT22;70441;44.758;37.686;2024-03-06T04:30:10;9.02;71.04
78902;DHT22;70441;44.758;37.686;2024-03-06T04:31:12;9.02;70.99
78902;DHT22;70441;44.758;37.686;2024-03-06T04:32:13;9.03;71.04
78902;DHT22;70441;44.758;37.686;2024-03-06T04:33:14;9.03;71.06
78902;DHT22;70441;44.758;37.686;2024-03-06T04:34:16;9.03;71.14
78902;DHT22;70441;44.758;37.686;2024-03-06T04:35:17;9.06;71.16
78902;DHT22;70441;44.758;37.686;2024-03-06T04:36:18;9.04;71.17
78902;DHT22;70441;44.758;37.686;2024-03-06T04:37:20;9.07;71.17
78902;DHT22;70441;44.758;37.686;2024-03-06T04:38:21;9.07;71.19
78902;DHT22;70441;44.758;37.686;2024-03-06T04:39:22;9.10;71.15
78902;DHT22;70441;44.758;37.686;2024-03-06T04:40:24;9.11;71.12
78902;DHT22;70441;44.758;37.686;2024-03-06T04:41:26;9.16;71.00
78902;DHT22;70441;44.758;37.686;2024-03-06T04:42:27;9.17;70.99
78902;DHT22;70441;44.758;37.686;2024-03-06T04:43:29;9.20;70.98
78902;DHT22;70441;44.758;37.686;2024-03-06T04:44:34;9.23;70.85
78902;DHT22;70441;44.758;37.686;2024-03-06T04:45:35;9.27;70.71
78902;DHT22;70441;44.758;37.686;2024-03-06T04:46:37;9.30;70.64
78902;DHT22;70441;44.758;37.686;2024-03-06T04:47:38;9.38;70.48
78902;DHT22;70441;44.758;37.686;2024-03-06T04:48:39;9.41;70.28
78902;DHT22;70441;44.758;37.686;2024-03-06T04:49:41;9.45;70.03
78902;DHT22;70441;44.758;37.686;2024-03-06T04:50:43;9.53;69.74
78902;DHT22;70441;44.758;37.686;2024-03-06T04:51:46;9.59;69.59
78902;DHT22;70441;44.758;37.686;2024-03-06T04:52:47;9.65;69.54
78902;DHT22;70441;44.758;37.686;2024-03-06T04:53:48;9.68;69.43
78902;DHT22;70441;44.758;37.686;2024-03-06T04:54:52;9.70;69.13
78902;DHT22;70441;44.758;37.686;2024-03-06T04:55:53;9.75;69.05
78902;DHT22;70441;44.758;37.686;2024-03-06T04:56:55;9.77;68.78
78902;DHT22;70441;44.758;37.686;2024-03-06T04:57:57;9.79;68.82
78902;DHT22;70441;44.758;37.686;2024-03-06T04:58:58;9.89;68.82
78902;DHT22;70441;44.758;37.686;2024-03-06T05:00:07;9.94;68.36
78902;DHT22;70441;44.758;37.686;2024-03-06T05:01:09;10.04;68.21
78902;DHT22;70441;44.758;37.686;2024-03-06T05:02:11;10.11;68.04
78902;DHT22;70441;44.758;37.686;2024-03-06T05:03:12;10.21;67.61
78902;DHT22;70441;44.758;37.686;2024-03-06T05:04:14;10.28;67.48
78902;DHT22;70441;44.758;37.686;2024-03-06T05:05:15;10.36;66.97
78902;DHT22;70441;44.758;37.686;2024-03-06T05:06:16;10.42;67.12
78902;DHT22;70441;44.758;37.686;2024-03-06T05:07:18;10.53;66.70
78902;DHT22;70441;44.758;37.686;2024-03-06T05:08:19;10.60;66.49
78902;DHT22;70441;44.758;37.686;2024-03-06T05:09:21;10.66;66.16
78902;DHT22;70441;44.758;37.686;2024-03-06T05:10:22;10.74;65.95
78902;DHT22;70441;44.758;37.686;2024-03-06T05:11:24;10.81;66.15
78902;DHT22;70441;44.758;37.686;2024-03-06T05:12:26;10.88;66.58
78902;DHT22;70441;44.758;37.686;2024-03-06T05:13:28;11.00;66.03
78902;DHT22;70441;44.758;37.686;2024-03-06T05:14:29;11.05;65.24
78902;DHT22;70441;44.758;37.686;2024-03-06T05:15:30;11.14;64.81
78902;DHT22;70441;44.758;37.686;2024-03-06T05:16:32;11.25;64.94
78902;DHT22;70441;44.758;37.686;2024-03-06T05:17:34;11.35;64.42
78902;DHT22;70441;44.758;37.686;2024-03-06T05:18:35;11.36;63.81
78902;DHT22;70441;44.758;37.686;2024-03-06T05:19:36;11.42;64.25
78902;DHT22;70441;44.758;37.686;2024-03-06T05:20:38;11.50;63.48
78902;DHT22;70441;44.758;37.686;2024-03-06T05:21:39;11.53;63.44
78902;DHT22;70441;44.758;37.686;2024-03-06T05:22:41;11.60;63.23
78902;DHT22;70441;44.758;37.686;2024-03-06T05:23:42;11.64;63.31
78902;DHT22;70441;44.758;37.686;2024-03-06T05:24:44;11.73;62.99
78902;DHT22;70441;44.758;37.686;2024-03-06T05:25:45;11.80;63.06
78902;DHT22;70441;44.758;37.686;2024-03-06T05:26:46;11.85;62.48
78902;DHT22;70441;44.758;37.686;2024-03-06T05:27:48;11.89;62.40
78902;DHT22;70441;44.758;37.686;2024-03-06T05:28:49;11.95;62.30
78902;DHT22;70441;44.758;37.686;2024-03-06T05:29:50;12.02;61.80
78902;DHT22;70441;44.758;37.686;2024-03-06T05:30:52;12.08;61.69
78902;DHT22;70441;44.758;37.686;2024-03-06T05:31:53;12.15;61.64
78902;DHT22;70441;44.758;37.686;2024-03-06T05:32:56;12.25;61.41
78902;DHT22;70441;44.758;37.686;2024-03-06T05:33:58;12.32;61.55
78902;DHT22;70441;44.758;37.686;2024-03-06T05:34:59;12.43;61.15
78902;DHT22;70441;44.758;37.686;2024-03-06T05:36:00;12.54;60.82
78902;DHT22;70441;44.758;37.686;2024-03-06T05:37:02;12.68;60.14
78902;DHT22;70441;44.758;37.686;2024-03-06T05:38:06;12.82;60.38
78902;DHT22;70441;44.758;37.686;2024-03-06T05:39:08;12.96;59.44
78902;DHT22;70441;44.758;37.686;2024-03-06T05:40:13;13.12;59.70
78902;DHT22;70441;44.758;37.686;2024-03-06T05:41:14;13.30;58.11
78902;DHT22;70441;44.758;37.686;2024-03-06T05:42:19;13.47;57.76
78902;DHT22;70441;44.758;37.686;2024-03-06T05:43:20;13.53;57.15
78902;DHT22;70441;44.758;37.686;2024-03-06T05:44:21;13.58;57.08
78902;DHT22;70441;44.758;37.686;2024-03-06T05:45:23;13.59;56.71
78902;DHT22;70441;44.758;37.686;2024-03-06T05:46:24;13.64;56.85
78902;DHT22;70441;44.758;37.686;2024-03-06T05:47:27;13.66;56.25
78902;DHT22;70441;44.758;37.686;2024-03-06T05:48:28;13.65;56.01
78902;DHT22;70441;44.758;37.686;2024-03-06T05:49:29;13.65;56.23
78902;DHT22;70441;44.758;37.686;2024-03-06T05:50:31;13.72;56.05
78902;DHT22;70441;44.758;37.686;2024-03-06T05:51:32;13.72;55.53
78902;DHT22;70441;44.758;37.686;2024-03-06T05:52:34;13.68;56.57
78902;DHT22;70441;44.758;37.686;2024-03-06T05:53:39;13.83;55.80
78902;DHT22;70441;44.758;37.686;2024-03-06T05:54:43;13.86;56.20
78902;DHT22;70441;44.758;37.686;2024-03-06T05:55:45;13.98;56.63
78902;DHT22;70441;44.758;37.686;2024-03-06T05:56:48;14.14;55.57
78902;DHT22;70441;44.758;37.686;2024-03-06T05:57:50;14.28;55.16
78902;DHT22;70441;44.758;37.686;2024-03-06T05:58:52;14.44;54.06
78902;DHT22;70441;44.758;37.686;2024-03-06T05:59:54;14.62;53.15
78902;DHT22;70441;44.758;37.686;2024-03-06T06:00:55;14.73;53.14
78902;DHT22;70441;44.758;37.686;2024-03-06T06:01:57;14.84;52.24
78902;DHT22;70441;44.758;37.686;2024-03-06T06:02:59;14.93;52.64
78902;DHT22;70441;44.758;37.686;2024-03-06T06:04:01;15.01;52.27
78902;DHT22;70441;44.758;37.686;2024-03-06T06:05:02;15.01;52.70
78902;DHT22;70441;44.758;37.686;2024-03-06T06:06:04;15.10;52.41
78902;DHT22;70441;44.758;37.686;2024-03-06T06:07:06;15.20;51.57
78902;DHT22;70441;44.758;37.686;2024-03-06T06:08:07;15.24;51.07
78902;DHT22;70441;44.758;37.686;2024-03-06T06:09:08;15.30;51.32
78902;DHT22;70441;44.758;37.686;2024-03-06T06:10:19;15.32;50.68
78902;DHT22;70441;44.758;37.686;2024-03-06T06:11:21;15.38;50.76
78902;DHT22;70441;44.758;37.686;2024-03-06T06:12:22;15.45;50.47
78902;DHT22;70441;44.758;37.686;2024-03-06T06:13:23;15.52;50.48
78902;DHT22;70441;44.758;37.686;2024-03-06T06:14:25;15.56;50.35
78902;DHT22;70441;44.758;37.686;2024-03-06T06:15:28;15.63;50.60
78902;DHT22;70441;44.758;37.686;2024-03-06T06:16:39;15.73;49.89
78902;DHT22;70441;44.758;37.686;2024-03-06T06:17:42;15.80;50.40
78902;DHT22;70441;44.758;37.686;2024-03-06T06:18:45;15.89;49.71
78902;DHT22;70441;44.758;37.686;2024-03-06T06:19:46;15.94;49.45
78902;DHT22;70441;44.758;37.686;2024-03-06T06:20:48;16.01;50.06
78902;DHT22;70441;44.758;37.686;2024-03-06T06:21:53;16.14;49.09
78902;DHT22;70441;44.758;37.686;2024-03-06T06:22:55;16.22;48.97
78902;DHT22;70441;44.758;37.686;2024-03-06T06:23:57;16.25;48.44
78902;DHT22;70441;44.758;37.686;2024-03-06T06:24:58;16.28;49.43
78902;DHT22;70441;44.758;37.686;2024-03-06T06:26:00;16.35;48.29
78902;DHT22;70441;44.758;37.686;2024-03-06T06:27:01;16.38;48.10
78902;DHT22;70441;44.758;37.686;2024-03-06T06:28:04;16.42;48.13
78902;DHT22;70441;44.758;37.686;2024-03-06T06:29:05;16.49;46.91